createdAt,value
2018-12-14T00:01:12.604Z,36.66
2018-12-14T00:03:43.880Z,36.63
2018-12-14T00:06:16.511Z,36.16
2018-12-14T00:08:45.786Z,36.55
2018-12-14T00:11:15.063Z,37.12
2018-12-14T00:13:44.240Z,37.24
2018-12-14T00:16:14.726Z,38.38
2018-12-14T00:18:44.887Z,37.31
2018-12-14T00:21:14.307Z,38.10
2018-12-14T00:23:43.632Z,36.96
2018-12-14T00:26:12.814Z,37.50
2018-12-14T00:28:41.986Z,37.38
2018-12-14T00:31:12.618Z,36.68
2018-12-14T00:33:41.799Z,36.34
2018-12-14T00:36:12.147Z,36.79
2018-12-14T00:38:41.578Z,36.16
2018-12-14T00:41:10.882Z,35.92
2018-12-14T00:43:41.035Z,36.11
2018-12-14T00:46:10.571Z,36.55
2018-12-14T00:48:39.763Z,35.78
2018-12-14T00:51:08.917Z,35.84
2018-12-14T00:53:38.319Z,36.29
2018-12-14T00:57:38.596Z,35.68
2018-12-14T01:00:09.893Z,37.04
2018-12-14T01:02:39.093Z,37.21
2018-12-14T01:05:08.524Z,37.35
2018-12-14T01:07:38.750Z,37.62
2018-12-14T01:10:08.047Z,37.26
2018-12-14T01:12:37.403Z,36.98
2018-12-14T01:15:06.935Z,37.12
2018-12-14T01:17:36.239Z,36.87
2018-12-14T01:20:09.124Z,36.51
2018-12-14T01:22:38.301Z,36.78
2018-12-14T01:25:07.727Z,36.81
2018-12-14T01:27:37.363Z,36.73
2018-12-14T01:30:07.455Z,36.41
2018-12-14T01:32:37.206Z,38.16
2018-12-14T01:35:06.595Z,37.10
2018-12-14T01:37:35.828Z,36.77
2018-12-14T01:40:06.936Z,36.33
2018-12-14T01:42:36.635Z,36.04
2018-12-14T01:45:06.544Z,35.93
2018-12-14T01:47:35.663Z,36.42
2018-12-14T01:50:06.043Z,36.48
2018-12-14T01:52:36.419Z,35.94
2018-12-14T01:55:06.031Z,35.98
2018-12-14T01:57:35.593Z,35.66
2018-12-14T02:00:05.434Z,36.40
2018-12-14T02:02:34.726Z,36.68
2018-12-14T02:05:07.575Z,36.84
2018-12-14T02:07:36.791Z,37.43
2018-12-14T02:10:06.267Z,37.97
2018-12-14T02:12:35.542Z,37.92
2018-12-14T02:15:05.462Z,37.82
2018-12-14T02:17:35.129Z,37.71
2018-12-14T02:20:04.949Z,38.07
2018-12-14T02:22:35.368Z,37.89
2018-12-14T02:25:05.672Z,37.86
2018-12-14T02:27:37.306Z,38.23
2018-12-14T02:30:17.557Z,37.98
2018-12-14T02:32:46.838Z,38.20
2018-12-14T02:35:16.854Z,39.91
2018-12-14T02:37:46.210Z,39.24
2018-12-14T02:40:17.364Z,38.90
2018-12-14T02:42:46.654Z,39.12
2018-12-14T02:45:15.905Z,39.18
2018-12-14T02:47:47.623Z,39.21
2018-12-14T02:50:16.942Z,39.62
2018-12-14T02:52:46.160Z,39.79
2018-12-14T02:55:16.084Z,39.50
2018-12-14T02:57:45.627Z,38.69
2018-12-14T03:00:15.212Z,37.81
2018-12-14T03:02:45.751Z,38.15
2018-12-14T03:05:15.542Z,38.73
2018-12-14T03:07:44.746Z,38.23
2018-12-14T03:10:15.007Z,39.87
2018-12-14T03:12:44.223Z,39.55
2018-12-14T03:15:13.599Z,38.93
2018-12-14T03:17:42.775Z,39.29
2018-12-14T03:20:12.396Z,38.87
2018-12-14T03:22:42.533Z,38.53
2018-12-14T03:25:11.720Z,38.16
2018-12-14T03:27:40.890Z,37.85
2018-12-14T03:30:10.637Z,37.54
2018-12-14T03:32:40.027Z,37.72
2018-12-14T03:35:11.079Z,37.38
2018-12-14T03:37:40.393Z,36.73
2018-12-14T03:40:09.761Z,36.56
2018-12-14T03:42:39.350Z,35.55
2018-12-14T03:45:08.682Z,35.78
2018-12-14T03:47:38.804Z,35.99
2018-12-14T03:50:08.051Z,36.59
2018-12-14T03:52:37.224Z,36.80
2018-12-14T03:55:07.087Z,36.28
2018-12-14T03:57:36.269Z,36.50
2018-12-14T04:00:09.756Z,36.35
2018-12-14T04:02:39.033Z,36.26
2018-12-14T04:05:08.235Z,36.50
2018-12-14T04:07:37.621Z,36.48
2018-12-14T04:10:07.742Z,36.48
2018-12-14T04:12:41.504Z,36.08
2018-12-14T04:15:08.568Z,36.34
2018-12-14T04:17:37.749Z,36.02
2018-12-14T04:20:09.190Z,36.11
2018-12-14T04:22:39.492Z,35.92
2018-12-14T04:25:08.648Z,35.75
2018-12-14T04:29:07.777Z,35.79
2018-12-14T04:31:37.795Z,36.50
2018-12-14T04:34:07.468Z,36.43
2018-12-14T04:36:36.950Z,36.01
2018-12-14T04:39:08.298Z,36.06
2018-12-14T04:41:38.044Z,35.54
2018-12-14T04:44:09.400Z,35.73
2018-12-14T04:46:38.543Z,35.76
2018-12-14T04:49:09.081Z,36.09
2018-12-14T04:51:38.329Z,36.02
2018-12-14T04:54:08.506Z,36.21
2018-12-14T04:56:37.683Z,36.23
2018-12-14T04:59:06.835Z,36.38
2018-12-14T05:01:36.236Z,35.95
2018-12-14T05:04:05.391Z,35.89
2018-12-14T05:06:36.459Z,37.12
2018-12-14T05:09:06.600Z,36.81
2018-12-14T05:11:35.794Z,36.85
2018-12-14T05:14:04.934Z,36.54
2018-12-14T05:16:34.562Z,36.83
2018-12-14T05:19:04.268Z,36.88
2018-12-14T05:21:33.437Z,36.57
2018-12-14T05:24:03.644Z,36.07
2018-12-14T05:26:32.857Z,35.93
2018-12-14T05:29:03.900Z,36.38
2018-12-14T05:31:33.144Z,35.94
2018-12-14T05:34:02.358Z,35.94
2018-12-14T05:36:31.599Z,36.02
2018-12-14T05:39:00.844Z,35.64
2018-12-14T05:41:31.390Z,35.23
2018-12-14T05:44:00.567Z,35.25
2018-12-14T05:46:32.392Z,35.31
2018-12-14T05:49:01.720Z,35.67
2018-12-14T05:51:31.465Z,35.15
2018-12-14T05:54:01.101Z,35.41
2018-12-14T05:56:30.420Z,35.87
2018-12-14T05:58:59.584Z,35.15
2018-12-14T06:01:28.846Z,36.04
2018-12-14T06:03:59.703Z,35.91
2018-12-14T06:06:29.452Z,35.70
2018-12-14T06:08:58.961Z,37.01
2018-12-14T06:11:28.280Z,36.65
2018-12-14T06:13:57.479Z,36.50
2018-12-14T06:16:27.293Z,35.75
2018-12-14T06:18:56.978Z,36.25
2018-12-14T06:21:26.167Z,36.62
2018-12-14T06:23:55.329Z,36.66
2018-12-14T06:26:24.603Z,35.90
2018-12-14T06:28:55.485Z,35.46
2018-12-14T06:31:25.195Z,35.69
2018-12-14T06:33:54.379Z,35.48
2018-12-14T06:36:23.727Z,35.31
2018-12-14T06:38:52.954Z,34.73
2018-12-14T06:41:22.550Z,35.28
2018-12-14T06:43:52.297Z,35.20
2018-12-14T06:46:21.463Z,35.60
2018-12-14T06:48:51.538Z,35.23
2018-12-14T06:51:22.116Z,35.14
2018-12-14T06:53:51.782Z,34.85
2018-12-14T06:56:21.416Z,35.23
2018-12-14T06:58:50.654Z,35.23
2018-12-14T07:01:19.810Z,34.96
2018-12-14T07:03:48.989Z,35.23
2018-12-14T07:06:19.219Z,34.84
2018-12-14T07:08:48.828Z,35.00
2018-12-14T07:11:18.009Z,35.14
2018-12-14T07:13:47.348Z,35.03
2018-12-14T07:16:16.567Z,35.17
2018-12-14T07:18:46.211Z,34.40
2018-12-14T07:21:15.888Z,34.72
2018-12-14T07:23:45.121Z,34.80
2018-12-14T07:26:14.305Z,34.47
2018-12-14T07:28:43.599Z,35.04
2018-12-14T07:31:14.071Z,35.09
2018-12-14T07:33:43.563Z,35.24
2018-12-14T07:36:12.839Z,35.27
2018-12-14T07:38:47.993Z,35.31
2018-12-14T07:41:14.295Z,35.93
2018-12-14T07:43:43.580Z,35.83
2018-12-14T07:46:13.585Z,35.42
2018-12-14T07:48:43.137Z,35.48
2018-12-14T07:51:14.039Z,35.35
2018-12-14T07:53:43.218Z,34.72
2018-12-14T07:56:12.414Z,34.72
2018-12-14T07:58:42.374Z,34.94
2018-12-14T08:01:11.594Z,34.45
2018-12-14T08:03:41.414Z,35.65
2018-12-14T08:06:10.635Z,37.17
2018-12-14T08:08:39.790Z,35.45
2018-12-14T08:11:09.667Z,35.66
2018-12-14T08:13:38.846Z,35.90
2018-12-14T08:16:09.180Z,36.33
2018-12-14T08:18:38.475Z,35.51
2018-12-14T08:21:07.632Z,35.09
2018-12-14T08:23:37.387Z,35.51
2018-12-14T08:26:06.890Z,35.29
2018-12-14T08:28:36.600Z,35.09
2018-12-14T08:31:05.905Z,35.83
2018-12-14T08:33:37.071Z,36.74
2018-12-14T08:36:06.869Z,37.32
2018-12-14T08:38:36.508Z,36.67
2018-12-14T08:41:05.775Z,36.41
2018-12-14T08:43:41.200Z,36.68
2018-12-14T08:46:06.852Z,37.32
2018-12-14T08:48:36.148Z,37.06
2018-12-14T08:51:06.713Z,36.04
2018-12-14T08:53:36.792Z,38.58
2018-12-14T08:56:05.996Z,36.73
2018-12-14T08:58:35.151Z,36.80
2018-12-14T09:01:04.449Z,37.81
2018-12-14T09:03:34.541Z,37.14
2018-12-14T09:06:03.889Z,36.86
2018-12-14T09:08:34.155Z,36.41
2018-12-14T09:11:03.383Z,36.99
2018-12-14T09:13:32.600Z,36.87
2018-12-14T09:16:03.352Z,36.25
2018-12-14T09:18:32.491Z,37.52
2018-12-14T09:21:01.741Z,38.36
2018-12-14T09:23:31.033Z,37.63
2018-12-14T09:26:00.480Z,37.20
2018-12-14T09:28:30.627Z,38.42
2018-12-14T09:31:00.827Z,37.44
2018-12-14T09:33:29.984Z,37.09
2018-12-14T09:35:59.356Z,37.35
2018-12-14T09:38:28.739Z,36.65
2018-12-14T09:40:59.584Z,35.73
2018-12-14T09:43:28.916Z,36.45
2018-12-14T09:45:58.481Z,36.43
2018-12-14T09:48:27.806Z,36.58
2018-12-14T09:50:57.012Z,35.89
2018-12-14T09:53:27.185Z,36.10
2018-12-14T09:55:56.825Z,36.60
2018-12-14T09:58:25.974Z,36.14
2018-12-14T10:00:55.217Z,36.70
2018-12-14T10:03:25.791Z,36.97
2018-12-14T10:05:55.251Z,36.36
2018-12-14T10:08:25.249Z,37.49
2018-12-14T10:10:54.911Z,36.59
2018-12-14T10:13:24.212Z,36.67
2018-12-14T10:15:54.612Z,36.92
2018-12-14T10:18:24.340Z,38.87
2018-12-14T10:20:53.520Z,38.60
2018-12-14T10:23:22.721Z,38.14
2018-12-14T10:25:51.964Z,40.51
2018-12-14T10:28:21.895Z,39.18
2018-12-14T10:30:54.679Z,38.55
2018-12-14T10:33:23.838Z,39.36
2018-12-14T10:35:53.024Z,39.99
2018-12-14T10:38:22.910Z,40.02
2018-12-14T10:40:52.359Z,39.36
2018-12-14T10:43:21.545Z,41.88
2018-12-14T10:45:52.700Z,41.30
2018-12-14T10:48:22.154Z,40.46
2018-12-14T10:50:53.307Z,39.41
2018-12-14T10:53:23.417Z,39.44
2018-12-14T10:55:52.591Z,40.56
2018-12-14T10:58:22.172Z,39.79
2018-12-14T11:00:56.592Z,40.52
2018-12-14T11:03:26.779Z,41.42
2018-12-14T11:05:55.948Z,40.43
2018-12-14T11:08:25.210Z,39.52
2018-12-14T11:10:54.551Z,39.64
2018-12-14T11:13:23.719Z,39.64
2018-12-14T11:15:55.221Z,39.64
2018-12-14T11:18:24.464Z,39.16
2018-12-14T11:20:53.763Z,38.98
2018-12-14T11:23:23.578Z,38.87
2018-12-14T11:25:52.777Z,39.83
2018-12-14T11:28:22.981Z,39.18
2018-12-14T11:30:52.163Z,40.52
2018-12-14T11:33:21.408Z,38.69
2018-12-14T11:35:50.655Z,38.09
2018-12-14T11:38:19.858Z,38.42
2018-12-14T11:40:50.985Z,38.81
2018-12-14T11:43:20.721Z,38.17
2018-12-14T11:45:49.935Z,38.06
2018-12-14T11:48:19.101Z,37.78
2018-12-14T11:50:48.403Z,38.14
2018-12-14T11:56:20.321Z,38.40
2018-12-14T11:58:50.383Z,37.46
2018-12-14T12:01:19.580Z,36.33
2018-12-14T12:03:50.721Z,36.75
2018-12-14T12:06:19.884Z,36.56
2018-12-14T12:08:49.185Z,36.22
2018-12-14T12:11:18.641Z,36.47
2018-12-14T12:13:47.980Z,36.03
2018-12-14T12:16:19.128Z,36.18
2018-12-14T12:18:48.395Z,37.27
2018-12-14T12:21:17.622Z,37.02
2018-12-14T12:23:46.879Z,36.88
2018-12-14T12:26:16.035Z,37.58
2018-12-14T12:28:46.203Z,37.08
2018-12-14T12:31:15.553Z,36.55
2018-12-14T12:33:44.790Z,36.38
2018-12-14T12:36:14.540Z,36.42
2018-12-14T12:38:45.014Z,37.79
2018-12-14T12:41:16.196Z,36.44
2018-12-14T12:43:45.353Z,36.34
2018-12-14T12:46:15.437Z,35.32
2018-12-14T12:48:44.927Z,35.66
2018-12-14T12:51:14.532Z,35.91
2018-12-14T12:53:44.143Z,35.83
2018-12-14T12:56:13.555Z,36.12
2018-12-14T12:58:42.742Z,36.54
2018-12-14T13:01:13.933Z,36.22
2018-12-14T13:03:43.933Z,35.75
2018-12-14T13:06:13.251Z,36.07
2018-12-14T13:08:42.567Z,36.21
2018-12-14T13:11:11.751Z,36.93
2018-12-14T13:13:40.947Z,36.63
2018-12-14T13:16:11.120Z,36.62
2018-12-14T13:18:40.276Z,36.68
2018-12-14T13:21:09.543Z,36.44
2018-12-14T13:23:38.728Z,36.00
2018-12-14T13:26:07.956Z,36.66
2018-12-14T13:28:38.811Z,36.63
2018-12-14T13:31:08.231Z,36.19
2018-12-14T13:33:38.147Z,35.23
2018-12-14T13:36:08.440Z,35.67
2018-12-14T13:38:39.011Z,35.60
2018-12-14T13:47:55.512Z,37.25
2018-12-14T13:50:26.540Z,37.54
2018-12-14T13:52:55.682Z,37.11
2018-12-14T13:55:26.230Z,37.72
2018-12-14T13:57:55.428Z,37.16
2018-12-14T14:00:25.429Z,36.82
2018-12-14T14:02:55.489Z,36.52
2018-12-14T14:05:24.645Z,36.40
2018-12-14T14:07:53.852Z,36.73
2018-12-14T14:10:23.089Z,36.60
2018-12-14T14:12:54.234Z,36.80
2018-12-14T14:15:24.174Z,36.68
2018-12-14T14:17:53.428Z,36.87
2018-12-14T14:20:22.592Z,36.50
2018-12-14T14:22:51.807Z,36.13
2018-12-14T14:25:21.647Z,35.86
2018-12-14T14:27:51.273Z,36.12
2018-12-14T14:30:21.499Z,35.56
2018-12-14T14:32:50.947Z,35.72
2018-12-14T14:35:20.363Z,35.35
2018-12-14T14:37:57.485Z,35.25
2018-12-14T14:40:24.398Z,35.59
2018-12-14T14:42:53.754Z,35.35
2018-12-14T14:45:22.991Z,35.09
2018-12-14T14:47:55.706Z,34.90
2018-12-14T14:50:25.699Z,35.18
2018-12-14T14:52:57.412Z,34.98
2018-12-14T14:55:26.612Z,34.61
2018-12-14T14:57:58.439Z,34.55
2018-12-14T15:00:29.695Z,34.69
2018-12-14T15:03:01.031Z,34.94
2018-12-14T15:05:30.570Z,35.09
2018-12-14T15:08:00.740Z,35.46
2018-12-14T15:10:30.049Z,34.59
2018-12-14T15:12:59.372Z,34.57
2018-12-14T15:15:29.345Z,35.86
2018-12-14T15:17:58.619Z,36.03
2018-12-14T15:20:30.191Z,35.14
2018-12-14T15:23:01.219Z,34.92
2018-12-14T15:25:30.543Z,34.95
2018-12-14T15:27:59.775Z,34.73
2018-12-14T15:30:29.261Z,34.85
2018-12-14T15:32:59.602Z,34.66
2018-12-14T15:35:28.802Z,34.34
2018-12-14T15:37:59.397Z,35.32
2018-12-14T15:40:28.600Z,35.84
2018-12-14T15:42:59.006Z,35.47
2018-12-14T15:45:28.896Z,36.01
2018-12-14T15:47:58.325Z,35.08
2018-12-14T15:50:27.574Z,35.22
2018-12-14T15:52:56.856Z,35.13
2018-12-14T15:55:26.655Z,34.95
2018-12-14T15:57:56.308Z,35.19
2018-12-14T16:00:26.371Z,36.09
2018-12-14T16:02:55.605Z,36.31
2018-12-14T16:05:27.739Z,35.14
2018-12-14T16:07:57.318Z,35.63
2018-12-14T16:10:26.672Z,35.35
2018-12-14T16:12:55.872Z,34.83
2018-12-14T16:15:26.587Z,35.09
2018-12-14T16:17:56.922Z,34.33
2018-12-14T16:20:26.470Z,34.21
2018-12-14T16:22:56.852Z,34.32
2018-12-14T16:25:26.080Z,34.40
2018-12-14T16:27:56.169Z,34.40
2018-12-14T16:30:27.044Z,34.38
2018-12-14T16:32:56.267Z,34.66
2018-12-14T16:35:25.533Z,34.75
2018-12-14T16:37:55.052Z,34.95
2018-12-14T16:40:26.119Z,35.44
2018-12-14T16:42:57.009Z,34.82
2018-12-14T16:45:26.616Z,34.83
2018-12-14T16:47:57.116Z,34.92
2018-12-14T16:50:28.146Z,34.93
2018-12-14T16:52:58.324Z,34.63
2018-12-14T16:55:28.093Z,34.65
2018-12-14T16:57:57.288Z,34.30
2018-12-14T17:00:26.984Z,34.55
2018-12-14T17:02:57.316Z,34.13
2018-12-14T17:05:26.717Z,34.75
2018-12-14T17:07:56.075Z,34.32
2018-12-14T17:10:25.262Z,34.26
2018-12-14T17:12:56.201Z,34.04
2018-12-14T17:15:25.404Z,34.65
2018-12-14T17:17:54.703Z,34.10
2018-12-14T17:20:23.924Z,33.94
2018-12-14T17:22:53.207Z,34.00
2018-12-14T17:25:23.246Z,34.35
2018-12-14T17:27:52.438Z,34.69
2018-12-14T17:30:21.675Z,34.28
2018-12-14T17:32:50.924Z,34.05
2018-12-14T17:35:20.141Z,34.29
2018-12-14T17:37:53.422Z,34.79
2018-12-14T17:40:22.726Z,34.51
2018-12-14T17:42:54.045Z,34.75
2018-12-14T17:45:23.237Z,34.67
2018-12-14T17:47:52.963Z,35.07
2018-12-14T17:50:22.588Z,34.46
2018-12-14T17:52:51.763Z,34.55
2018-12-14T17:55:21.207Z,34.28
2018-12-14T17:57:51.061Z,34.66
2018-12-14T18:00:22.241Z,34.63
2018-12-14T18:02:51.908Z,35.44
2018-12-14T18:05:21.089Z,34.25
2018-12-14T18:07:50.448Z,34.52
2018-12-14T18:10:19.686Z,34.37
2018-12-14T18:12:49.466Z,33.77
2018-12-14T18:15:19.353Z,33.93
2018-12-14T18:17:48.660Z,33.84
2018-12-14T18:20:17.908Z,33.92
2018-12-14T18:22:47.422Z,34.92
2018-12-14T18:25:19.742Z,34.73
2018-12-14T18:27:49.418Z,34.21
2018-12-14T18:30:19.203Z,34.16
2018-12-14T18:32:48.515Z,34.69
2018-12-14T18:35:17.816Z,34.53
2018-12-14T18:37:47.698Z,34.15
2018-12-14T18:40:17.407Z,34.22
2018-12-14T18:42:46.713Z,34.42
2018-12-14T18:45:16.001Z,34.44
2018-12-14T18:47:46.325Z,33.87
2018-12-14T18:50:16.419Z,33.93
2018-12-14T18:52:46.040Z,34.06
2018-12-14T18:55:15.235Z,33.48
2018-12-14T18:57:44.482Z,33.61
2018-12-14T19:00:14.219Z,33.82
2018-12-14T19:02:44.714Z,33.54
2018-12-14T19:05:14.447Z,34.21
2018-12-14T19:07:43.627Z,34.35
2018-12-14T19:10:14.814Z,34.07
2018-12-14T19:12:45.196Z,34.79
2018-12-14T19:15:14.991Z,34.40
2018-12-14T19:17:44.786Z,34.62
2018-12-14T19:20:13.991Z,34.10
2018-12-14T19:22:44.143Z,33.81
2018-12-14T19:25:13.343Z,34.83
2018-12-14T19:27:44.026Z,34.97
2018-12-14T19:30:13.774Z,35.02
2018-12-14T19:32:43.530Z,34.70
2018-12-14T19:35:13.780Z,35.01
2018-12-14T19:37:43.523Z,34.57
2018-12-14T19:40:13.262Z,34.75
2018-12-14T19:42:42.439Z,35.30
2018-12-14T19:45:12.905Z,34.71
2018-12-14T19:47:42.112Z,34.57
2018-12-14T19:50:11.416Z,34.09
2018-12-14T19:52:41.694Z,34.21
2018-12-14T19:55:11.415Z,33.87
2018-12-14T19:57:54.411Z,33.99
2018-12-14T20:00:23.915Z,34.46
2018-12-14T20:02:53.598Z,34.62
2018-12-14T20:05:23.909Z,35.66
2018-12-14T20:07:53.646Z,35.42
2018-12-14T20:10:23.559Z,35.23
2018-12-14T20:12:53.052Z,34.45
2018-12-14T20:15:23.300Z,34.62
2018-12-14T20:17:55.135Z,34.63
2018-12-14T20:20:24.671Z,34.48
2018-12-14T20:22:54.324Z,34.66
2018-12-14T20:25:23.882Z,34.62
2018-12-14T20:27:54.057Z,34.41
2018-12-14T20:30:25.280Z,33.92
2018-12-14T20:32:55.741Z,34.88
2018-12-14T20:35:25.341Z,34.73
2018-12-14T20:37:57.949Z,34.71
2018-12-14T20:40:27.609Z,34.52
2018-12-14T20:42:57.161Z,34.30
2018-12-14T20:45:28.066Z,34.87
2018-12-14T20:47:57.765Z,34.50
2018-12-14T20:50:27.188Z,35.15
2018-12-14T20:52:56.491Z,34.92
2018-12-14T20:55:26.025Z,34.48
2018-12-14T20:57:56.667Z,34.86
2018-12-14T21:00:27.600Z,34.50
2018-12-14T21:02:56.876Z,35.08
2018-12-14T21:05:27.430Z,34.38
2018-12-14T21:07:56.614Z,34.50
2018-12-14T21:10:27.232Z,34.14
2018-12-14T21:12:57.505Z,34.51
2018-12-14T21:15:26.740Z,34.99
2018-12-14T21:17:55.934Z,35.00
2018-12-14T21:20:25.196Z,34.88
2018-12-14T21:22:56.700Z,34.65
2018-12-14T21:25:26.051Z,35.23
2018-12-14T21:27:55.259Z,34.56
2018-12-14T21:30:26.042Z,34.84
2018-12-14T21:32:56.011Z,35.50
2018-12-14T21:35:25.730Z,34.89
2018-12-14T21:37:55.013Z,35.68
2018-12-14T21:40:24.213Z,35.53
2018-12-14T21:42:53.450Z,35.25
2018-12-14T21:45:24.018Z,35.80
2018-12-14T21:47:53.654Z,35.44
2018-12-14T21:50:23.272Z,35.45
2018-12-14T21:52:52.591Z,35.22
2018-12-14T21:55:21.986Z,34.68
2018-12-14T21:57:51.912Z,36.23
2018-12-14T22:00:21.743Z,36.18
2018-12-14T22:02:51.079Z,35.79
2018-12-14T22:05:20.266Z,36.52
2018-12-14T22:07:49.524Z,36.44
2018-12-14T22:10:20.724Z,35.66
2018-12-14T22:12:50.699Z,35.79
2018-12-14T22:15:19.875Z,35.53
2018-12-14T22:17:49.090Z,35.85
2018-12-14T22:20:19.392Z,36.28
2018-12-14T22:22:48.607Z,36.05
2018-12-14T22:25:18.716Z,35.62
2018-12-14T22:27:47.955Z,36.79
2018-12-14T22:30:17.129Z,36.87
2018-12-14T22:32:47.352Z,37.56
2018-12-14T22:35:16.539Z,37.53
2018-12-14T22:37:46.203Z,36.73
2018-12-14T22:40:15.597Z,36.41
2018-12-14T22:44:14.107Z,36.36
2018-12-14T22:46:45.778Z,36.47
2018-12-14T22:49:15.508Z,36.54
2018-12-14T22:51:44.802Z,36.59
2018-12-14T22:54:14.015Z,35.92
2018-12-14T22:56:43.767Z,35.71
2018-12-14T22:59:14.580Z,34.98
2018-12-14T23:01:43.866Z,35.23
2018-12-14T23:04:13.403Z,35.39
2018-12-14T23:06:43.814Z,34.50
2018-12-14T23:09:13.898Z,35.15
2018-12-14T23:11:43.084Z,35.19
2018-12-14T23:14:12.592Z,35.51
2018-12-14T23:16:41.792Z,35.37
2018-12-14T23:19:11.556Z,35.22
2018-12-14T23:21:43.385Z,35.04
2018-12-14T23:24:12.648Z,36.01
2018-12-14T23:26:42.530Z,35.44
2018-12-14T23:29:14.053Z,35.71
2018-12-14T23:31:43.761Z,35.27
2018-12-14T23:34:14.829Z,35.36
2018-12-14T23:36:44.336Z,35.34
2018-12-14T23:39:15.582Z,35.44
2018-12-14T23:41:49.451Z,35.08
2018-12-14T23:44:29.575Z,35.14
2018-12-14T23:47:02.755Z,35.42
2018-12-14T23:49:32.056Z,35.33
2018-12-14T23:52:02.392Z,35.21
2018-12-14T23:54:32.403Z,35.62
2018-12-14T23:57:01.743Z,36.54
2018-12-14T23:59:31.830Z,35.99
